sensor_id;sensor_type;location;lat;lon;timestamp;temperature;humidity
45044;DHT22;30784;48.490;9.688;2023-06-26T00:00:18;23.80;35.20
45044;DHT22;30784;48.490;9.688;2023-06-26T00:02:43;23.70;35.30
45044;DHT22;30784;48.490;9.688;2023-06-26T00:05:09;23.70;35.30
45044;DHT22;30784;48.490;9.688;2023-06-26T00:07:35;23.70;35.40
45044;DHT22;30784;48.490;9.688;2023-06-26T00:10:04;23.70;35.90
45044;DHT22;30784;48.490;9.688;2023-06-26T00:12:30;23.70;35.40
45044;DHT22;30784;48.490;9.688;2023-06-26T00:14:56;23.70;35.40
45044;DHT22;30784;48.490;9.688;2023-06-26T00:17:22;23.60;35.40
45044;DHT22;30784;48.490;9.688;2023-06-26T00:19:48;23.60;35.70
45044;DHT22;30784;48.490;9.688;2023-06-26T00:22:13;23.60;35.70
45044;DHT22;30784;48.490;9.688;2023-06-26T00:24:39;23.60;35.80
45044;DHT22;30784;48.490;9.688;2023-06-26T00:27:05;23.50;35.80
45044;DHT22;30784;48.490;9.688;2023-06-26T00:29:30;23.50;35.70
45044;DHT22;30784;48.490;9.688;2023-06-26T00:31:56;23.50;35.80
45044;DHT22;30784;48.490;9.688;2023-06-26T00:34:22;23.50;35.90
45044;DHT22;30784;48.490;9.688;2023-06-26T00:36:47;23.50;35.90
45044;DHT22;30784;48.490;9.688;2023-06-26T00:39:13;23.50;36.10
45044;DHT22;30784;48.490;9.688;2023-06-26T00:41:39;23.50;36.00
45044;DHT22;30784;48.490;9.688;2023-06-26T00:44:05;23.40;36.10
45044;DHT22;30784;48.490;9.688;2023-06-26T00:46:31;23.40;36.10
45044;DHT22;30784;48.490;9.688;2023-06-26T00:48:59;23.40;36.10
45044;DHT22;30784;48.490;9.688;2023-06-26T00:51:27;23.30;36.20
45044;DHT22;30784;48.490;9.688;2023-06-26T00:53:53;23.30;36.20
45044;DHT22;30784;48.490;9.688;2023-06-26T00:56:20;23.30;36.20
45044;DHT22;30784;48.490;9.688;2023-06-26T00:58:46;23.30;36.20
45044;DHT22;30784;48.490;9.688;2023-06-26T01:01:12;23.20;36.20
45044;DHT22;30784;48.490;9.688;2023-06-26T01:03:44;23.20;36.20
45044;DHT22;30784;48.490;9.688;2023-06-26T01:06:11;23.20;36.20
45044;DHT22;30784;48.490;9.688;2023-06-26T01:08:39;23.10;36.30
45044;DHT22;30784;48.490;9.688;2023-06-26T01:11:06;23.10;36.20
45044;DHT22;30784;48.490;9.688;2023-06-26T01:13:32;23.10;36.20
45044;DHT22;30784;48.490;9.688;2023-06-26T01:15:59;23.10;36.30
45044;DHT22;30784;48.490;9.688;2023-06-26T01:18:25;23.10;36.30
45044;DHT22;30784;48.490;9.688;2023-06-26T01:20:52;23.10;36.50
45044;DHT22;30784;48.490;9.688;2023-06-26T01:23:35;23.10;36.30
45044;DHT22;30784;48.490;9.688;2023-06-26T01:26:22;23.00;36.30
45044;DHT22;30784;48.490;9.688;2023-06-26T01:28:50;23.00;36.30
45044;DHT22;30784;48.490;9.688;2023-06-26T01:31:17;23.10;36.50
45044;DHT22;30784;48.490;9.688;2023-06-26T01:33:43;23.00;36.50
45044;DHT22;30784;48.490;9.688;2023-06-26T01:36:10;23.00;36.70
45044;DHT22;30784;48.490;9.688;2023-06-26T01:38:36;23.00;36.60
45044;DHT22;30784;48.490;9.688;2023-06-26T01:41:02;22.90;36.60
45044;DHT22;30784;48.490;9.688;2023-06-26T01:49:46;22.90;36.50
45044;DHT22;30784;48.490;9.688;2023-06-26T01:57:54;22.80;36.50
45044;DHT22;30784;48.490;9.688;2023-06-26T02:00:21;22.70;36.70
45044;DHT22;30784;48.490;9.688;2023-06-26T02:02:48;22.70;36.80
45044;DHT22;30784;48.490;9.688;2023-06-26T02:05:14;22.70;36.90
45044;DHT22;30784;48.490;9.688;2023-06-26T02:07:40;22.60;36.90
45044;DHT22;30784;48.490;9.688;2023-06-26T02:10:06;22.60;36.90
45044;DHT22;30784;48.490;9.688;2023-06-26T02:12:32;22.50;36.90
45044;DHT22;30784;48.490;9.688;2023-06-26T02:14:57;22.50;37.00
45044;DHT22;30784;48.490;9.688;2023-06-26T02:17:23;22.50;37.00
45044;DHT22;30784;48.490;9.688;2023-06-26T02:19:48;22.40;37.00
45044;DHT22;30784;48.490;9.688;2023-06-26T02:22:14;22.40;37.10
45044;DHT22;30784;48.490;9.688;2023-06-26T02:24:41;22.40;37.10
45044;DHT22;30784;48.490;9.688;2023-06-26T02:27:07;22.40;37.10
45044;DHT22;30784;48.490;9.688;2023-06-26T02:29:32;22.30;37.10
45044;DHT22;30784;48.490;9.688;2023-06-26T02:31:58;22.30;37.10
45044;DHT22;30784;48.490;9.688;2023-06-26T02:34:23;22.20;37.10
45044;DHT22;30784;48.490;9.688;2023-06-26T02:36:49;22.20;37.10
45044;DHT22;30784;48.490;9.688;2023-06-26T02:39:14;22.20;37.10
45044;DHT22;30784;48.490;9.688;2023-06-26T02:41:40;22.20;37.10
45044;DHT22;30784;48.490;9.688;2023-06-26T02:44:06;22.10;37.10
45044;DHT22;30784;48.490;9.688;2023-06-26T02:46:32;22.10;37.20
45044;DHT22;30784;48.490;9.688;2023-06-26T02:48:59;22.10;37.20
45044;DHT22;30784;48.490;9.688;2023-06-26T02:51:24;22.00;37.30
45044;DHT22;30784;48.490;9.688;2023-06-26T02:53:50;22.10;37.40
45044;DHT22;30784;48.490;9.688;2023-06-26T02:56:15;22.10;37.40
45044;DHT22;30784;48.490;9.688;2023-06-26T02:58:41;22.10;37.50
45044;DHT22;30784;48.490;9.688;2023-06-26T03:01:06;22.00;37.50
45044;DHT22;30784;48.490;9.688;2023-06-26T03:03:32;22.00;37.50
45044;DHT22;30784;48.490;9.688;2023-06-26T03:06:06;22.00;37.50
45044;DHT22;30784;48.490;9.688;2023-06-26T03:08:31;22.00;37.60
45044;DHT22;30784;48.490;9.688;2023-06-26T03:10:57;22.00;38.20
45044;DHT22;30784;48.490;9.688;2023-06-26T03:13:23;22.00;37.70
45044;DHT22;30784;48.490;9.688;2023-06-26T03:15:48;22.00;37.80
45044;DHT22;30784;48.490;9.688;2023-06-26T03:18:14;22.00;37.90
45044;DHT22;30784;48.490;9.688;2023-06-26T03:20:39;22.00;37.80
45044;DHT22;30784;48.490;9.688;2023-06-26T03:23:05;22.00;38.50
45044;DHT22;30784;48.490;9.688;2023-06-26T03:25:30;21.90;38.00
45044;DHT22;30784;48.490;9.688;2023-06-26T03:27:56;21.90;38.00
45044;DHT22;30784;48.490;9.688;2023-06-26T03:30:21;21.90;38.00
45044;DHT22;30784;48.490;9.688;2023-06-26T03:32:47;21.90;38.10
45044;DHT22;30784;48.490;9.688;2023-06-26T03:35:13;21.90;38.20
45044;DHT22;30784;48.490;9.688;2023-06-26T03:37:38;21.90;38.20
45044;DHT22;30784;48.490;9.688;2023-06-26T03:40:05;21.90;38.40
45044;DHT22;30784;48.490;9.688;2023-06-26T03:42:31;21.90;38.40
45044;DHT22;30784;48.490;9.688;2023-06-26T03:44:56;21.90;38.40
45044;DHT22;30784;48.490;9.688;2023-06-26T03:47:22;21.80;38.50
45044;DHT22;30784;48.490;9.688;2023-06-26T03:49:47;21.80;38.60
45044;DHT22;30784;48.490;9.688;2023-06-26T03:52:13;21.80;38.70
45044;DHT22;30784;48.490;9.688;2023-06-26T03:54:38;21.80;38.70
45044;DHT22;30784;48.490;9.688;2023-06-26T03:57:04;21.80;38.90
45044;DHT22;30784;48.490;9.688;2023-06-26T03:59:30;21.80;38.90
45044;DHT22;30784;48.490;9.688;2023-06-26T04:01:55;21.80;39.00
45044;DHT22;30784;48.490;9.688;2023-06-26T04:04:21;21.80;39.10
45044;DHT22;30784;48.490;9.688;2023-06-26T04:06:47;21.80;39.10
45044;DHT22;30784;48.490;9.688;2023-06-26T04:09:12;21.80;39.20
45044;DHT22;30784;48.490;9.688;2023-06-26T04:11:38;21.80;39.40
45044;DHT22;30784;48.490;9.688;2023-06-26T04:14:04;21.80;39.50
45044;DHT22;30784;48.490;9.688;2023-06-26T04:16:29;21.90;39.60
45044;DHT22;30784;48.490;9.688;2023-06-26T04:18:55;21.80;39.60
45044;DHT22;30784;48.490;9.688;2023-06-26T04:21:23;21.80;39.60
45044;DHT22;30784;48.490;9.688;2023-06-26T04:23:52;21.90;39.90
45044;DHT22;30784;48.490;9.688;2023-06-26T04:26:18;21.90;40.00
45044;DHT22;30784;48.490;9.688;2023-06-26T04:28:43;21.90;39.90
45044;DHT22;30784;48.490;9.688;2023-06-26T04:31:09;21.90;40.10
45044;DHT22;30784;48.490;9.688;2023-06-26T04:33:36;21.90;40.20
45044;DHT22;30784;48.490;9.688;2023-06-26T04:36:06;21.90;40.30
45044;DHT22;30784;48.490;9.688;2023-06-26T04:38:32;21.90;40.40
45044;DHT22;30784;48.490;9.688;2023-06-26T04:40:59;21.90;40.50
45044;DHT22;30784;48.490;9.688;2023-06-26T04:43:24;22.00;40.40
45044;DHT22;30784;48.490;9.688;2023-06-26T04:45:50;22.00;40.60
45044;DHT22;30784;48.490;9.688;2023-06-26T04:48:15;22.10;40.80
45044;DHT22;30784;48.490;9.688;2023-06-26T04:50:41;22.10;40.80
45044;DHT22;30784;48.490;9.688;2023-06-26T04:53:07;22.10;40.90
45044;DHT22;30784;48.490;9.688;2023-06-26T04:55:32;22.20;41.00
45044;DHT22;30784;48.490;9.688;2023-06-26T04:57:58;22.20;40.90
45044;DHT22;30784;48.490;9.688;2023-06-26T05:00:23;22.20;41.00
45044;DHT22;30784;48.490;9.688;2023-06-26T05:02:50;22.30;41.10
45044;DHT22;30784;48.490;9.688;2023-06-26T05:05:24;22.30;41.10
45044;DHT22;30784;48.490;9.688;2023-06-26T05:07:52;22.40;41.20
45044;DHT22;30784;48.490;9.688;2023-06-26T05:10:17;22.40;41.20
45044;DHT22;30784;48.490;9.688;2023-06-26T05:12:43;22.50;41.30
45044;DHT22;30784;48.490;9.688;2023-06-26T05:15:09;22.50;41.40
45044;DHT22;30784;48.490;9.688;2023-06-26T05:17:34;22.60;41.50
45044;DHT22;30784;48.490;9.688;2023-06-26T05:20:00;22.60;41.60
45044;DHT22;30784;48.490;9.688;2023-06-26T05:22:26;22.70;41.60
45044;DHT22;30784;48.490;9.688;2023-06-26T05:24:54;22.70;41.70
45044;DHT22;30784;48.490;9.688;2023-06-26T05:27:20;22.80;41.60
45044;DHT22;30784;48.490;9.688;2023-06-26T05:29:48;22.90;41.60
45044;DHT22;30784;48.490;9.688;2023-06-26T05:32:16;22.90;41.60
45044;DHT22;30784;48.490;9.688;2023-06-26T05:34:49;23.00;41.80
45044;DHT22;30784;48.490;9.688;2023-06-26T05:37:17;23.10;41.70
45044;DHT22;30784;48.490;9.688;2023-06-26T05:39:44;23.20;41.40
45044;DHT22;30784;48.490;9.688;2023-06-26T05:42:11;23.30;41.60
45044;DHT22;30784;48.490;9.688;2023-06-26T05:44:37;23.30;41.50
45044;DHT22;30784;48.490;9.688;2023-06-26T05:47:02;23.30;41.50
45044;DHT22;30784;48.490;9.688;2023-06-26T05:49:28;23.40;41.60
45044;DHT22;30784;48.490;9.688;2023-06-26T05:51:53;23.50;41.60
45044;DHT22;30784;48.490;9.688;2023-06-26T05:54:19;23.50;41.60
45044;DHT22;30784;48.490;9.688;2023-06-26T05:56:46;23.60;41.60
45044;DHT22;30784;48.490;9.688;2023-06-26T05:59:13;23.70;41.70
45044;DHT22;30784;48.490;9.688;2023-06-26T06:01:39;23.80;41.70
45044;DHT22;30784;48.490;9.688;2023-06-26T06:04:05;23.90;41.80
45044;DHT22;30784;48.490;9.688;2023-06-26T06:06:30;24.10;41.90
45044;DHT22;30784;48.490;9.688;2023-06-26T06:08:56;24.20;41.90
45044;DHT22;30784;48.490;9.688;2023-06-26T06:11:22;24.40;41.80
45044;DHT22;30784;48.490;9.688;2023-06-26T06:13:48;24.50;41.70
45044;DHT22;30784;48.490;9.688;2023-06-26T06:16:13;24.70;41.60
45044;DHT22;30784;48.490;9.688;2023-06-26T06:18:39;24.90;41.60
45044;DHT22;30784;48.490;9.688;2023-06-26T06:21:04;25.10;41.30
45044;DHT22;30784;48.490;9.688;2023-06-26T06:23:30;25.30;41.10
45044;DHT22;30784;48.490;9.688;2023-06-26T06:25:56;25.50;40.90
45044;DHT22;30784;48.490;9.688;2023-06-26T06:28:21;25.70;40.80
45044;DHT22;30784;48.490;9.688;2023-06-26T06:30:47;25.90;40.50
45044;DHT22;30784;48.490;9.688;2023-06-26T06:33:15;26.10;40.00
45044;DHT22;30784;48.490;9.688;2023-06-26T06:35:41;26.20;39.80
45044;DHT22;30784;48.490;9.688;2023-06-26T06:38:06;26.40;39.40
45044;DHT22;30784;48.490;9.688;2023-06-26T06:40:32;26.60;38.80
45044;DHT22;30784;48.490;9.688;2023-06-26T06:42:57;26.80;38.50
45044;DHT22;30784;48.490;9.688;2023-06-26T06:45:23;26.90;38.00
45044;DHT22;30784;48.490;9.688;2023-06-26T06:47:49;27.10;38.20
45044;DHT22;30784;48.490;9.688;2023-06-26T06:50:14;27.20;37.90
45044;DHT22;30784;48.490;9.688;2023-06-26T06:52:42;27.30;37.60
45044;DHT22;30784;48.490;9.688;2023-06-26T06:55:09;27.50;37.50
45044;DHT22;30784;48.490;9.688;2023-06-26T06:57:36;27.60;37.30
45044;DHT22;30784;48.490;9.688;2023-06-26T07:00:11;27.70;37.00
45044;DHT22;30784;48.490;9.688;2023-06-26T07:02:37;27.80;36.70
45044;DHT22;30784;48.490;9.688;2023-06-26T07:05:04;27.90;36.30
45044;DHT22;30784;48.490;9.688;2023-06-26T07:07:30;28.00;35.80
45044;DHT22;30784;48.490;9.688;2023-06-26T07:10:01;28.00;35.60
45044;DHT22;30784;48.490;9.688;2023-06-26T07:12:27;28.10;35.30
45044;DHT22;30784;48.490;9.688;2023-06-26T07:14:52;28.10;35.20
45044;DHT22;30784;48.490;9.688;2023-06-26T07:17:19;28.20;35.00
45044;DHT22;30784;48.490;9.688;2023-06-26T07:19:45;28.20;34.90
45044;DHT22;30784;48.490;9.688;2023-06-26T07:22:11;28.20;35.00
45044;DHT22;30784;48.490;9.688;2023-06-26T07:24:37;28.20;34.90
45044;DHT22;30784;48.490;9.688;2023-06-26T07:27:03;28.20;35.10
45044;DHT22;30784;48.490;9.688;2023-06-26T07:29:28;28.20;34.80
45044;DHT22;30784;48.490;9.688;2023-06-26T07:31:54;28.30;35.10
45044;DHT22;30784;48.490;9.688;2023-06-26T07:34:19;28.30;34.70
45044;DHT22;30784;48.490;9.688;2023-06-26T07:36:45;28.30;34.60
45044;DHT22;30784;48.490;9.688;2023-06-26T07:39:10;28.30;34.30
45044;DHT22;30784;48.490;9.688;2023-06-26T07:41:36;28.30;34.60
45044;DHT22;30784;48.490;9.688;2023-06-26T07:44:02;28.30;34.60
45044;DHT22;30784;48.490;9.688;2023-06-26T07:46:27;28.30;34.70
45044;DHT22;30784;48.490;9.688;2023-06-26T07:48:53;28.40;34.50
45044;DHT22;30784;48.490;9.688;2023-06-26T07:51:19;28.40;34.60
45044;DHT22;30784;48.490;9.688;2023-06-26T07:53:45;28.40;34.70
45044;DHT22;30784;48.490;9.688;2023-06-26T07:56:11;28.50;34.80
45044;DHT22;30784;48.490;9.688;2023-06-26T07:58:36;28.50;34.40
45044;DHT22;30784;48.490;9.688;2023-06-26T08:01:02;28.60;34.40
45044;DHT22;30784;48.490;9.688;2023-06-26T08:03:27;28.60;34.20
45044;DHT22;30784;48.490;9.688;2023-06-26T08:05:53;28.60;34.20
45044;DHT22;30784;48.490;9.688;2023-06-26T08:08:18;28.70;33.90
45044;DHT22;30784;48.490;9.688;2023-06-26T08:10:44;28.70;33.90
45044;DHT22;30784;48.490;9.688;2023-06-26T08:13:09;28.70;33.70
45044;DHT22;30784;48.490;9.688;2023-06-26T08:15:35;28.80;33.70
45044;DHT22;30784;48.490;9.688;2023-06-26T08:18:00;28.80;33.70
45044;DHT22;30784;48.490;9.688;2023-06-26T08:20:26;28.80;33.40
45044;DHT22;30784;48.490;9.688;2023-06-26T08:22:52;28.90;33.30
45044;DHT22;30784;48.490;9.688;2023-06-26T08:25:19;28.90;33.10
45044;DHT22;30784;48.490;9.688;2023-06-26T08:27:45;29.00;33.00
45044;DHT22;30784;48.490;9.688;2023-06-26T08:30:11;29.00;33.00
45044;DHT22;30784;48.490;9.688;2023-06-26T08:32:37;29.10;35.20
45044;DHT22;30784;48.490;9.688;2023-06-26T08:35:04;29.10;33.40
45044;DHT22;30784;48.490;9.688;2023-06-26T08:37:29;29.20;32.90
45044;DHT22;30784;48.490;9.688;2023-06-26T08:42:23;29.30;32.90
45044;DHT22;30784;48.490;9.688;2023-06-26T08:44:49;29.40;32.80
45044;DHT22;30784;48.490;9.688;2023-06-26T08:47:15;29.50;32.90
45044;DHT22;30784;48.490;9.688;2023-06-26T08:49:47;29.60;32.60
45044;DHT22;30784;48.490;9.688;2023-06-26T08:52:19;29.70;32.70
45044;DHT22;30784;48.490;9.688;2023-06-26T08:54:55;29.80;32.70
45044;DHT22;30784;48.490;9.688;2023-06-26T08:57:23;29.90;32.50
45044;DHT22;30784;48.490;9.688;2023-06-26T08:59:48;29.90;32.60
45044;DHT22;30784;48.490;9.688;2023-06-26T09:02:15;30.00;32.50
45044;DHT22;30784;48.490;9.688;2023-06-26T09:04:41;30.10;32.30
45044;DHT22;30784;48.490;9.688;2023-06-26T09:07:07;30.20;32.30
45044;DHT22;30784;48.490;9.688;2023-06-26T09:09:33;30.30;32.10
45044;DHT22;30784;48.490;9.688;2023-06-26T09:11:58;30.50;32.10
45044;DHT22;30784;48.490;9.688;2023-06-26T09:14:24;30.50;32.20
45044;DHT22;30784;48.490;9.688;2023-06-26T09:16:50;30.50;31.80
45044;DHT22;30784;48.490;9.688;2023-06-26T09:19:15;30.60;31.70
45044;DHT22;30784;48.490;9.688;2023-06-26T09:21:42;30.70;31.60
45044;DHT22;30784;48.490;9.688;2023-06-26T09:24:09;30.70;31.70
45044;DHT22;30784;48.490;9.688;2023-06-26T09:26:37;30.80;31.70
45044;DHT22;30784;48.490;9.688;2023-06-26T09:29:04;31.00;31.60
45044;DHT22;30784;48.490;9.688;2023-06-26T09:31:30;31.00;31.40
45044;DHT22;30784;48.490;9.688;2023-06-26T09:33:58;31.10;31.10
45044;DHT22;30784;48.490;9.688;2023-06-26T09:36:29;31.30;31.20
45044;DHT22;30784;48.490;9.688;2023-06-26T09:39:05;31.40;31.30
45044;DHT22;30784;48.490;9.688;2023-06-26T09:41:36;31.50;31.20
45044;DHT22;30784;48.490;9.688;2023-06-26T09:44:03;31.70;31.00
45044;DHT22;30784;48.490;9.688;2023-06-26T09:46:30;31.80;30.80
45044;DHT22;30784;48.490;9.688;2023-06-26T09:49:02;31.90;30.80
45044;DHT22;30784;48.490;9.688;2023-06-26T09:51:33;32.00;31.20
45044;DHT22;30784;48.490;9.688;2023-06-26T09:53:59;32.20;30.50
45044;DHT22;30784;48.490;9.688;2023-06-26T09:56:24;32.30;30.90
45044;DHT22;30784;48.490;9.688;2023-06-26T09:58:50;32.50;30.00
45044;DHT22;30784;48.490;9.688;2023-06-26T10:01:17;32.60;30.00
45044;DHT22;30784;48.490;9.688;2023-06-26T10:03:43;32.70;30.00
45044;DHT22;30784;48.490;9.688;2023-06-26T10:06:09;32.90;30.00
45044;DHT22;30784;48.490;9.688;2023-06-26T10:08:38;33.00;29.70
45044;DHT22;30784;48.490;9.688;2023-06-26T10:13:42;33.30;29.00
45044;DHT22;30784;48.490;9.688;2023-06-26T10:16:11;33.40;29.40
45044;DHT22;30784;48.490;9.688;2023-06-26T10:18:39;33.50;28.90
45044;DHT22;30784;48.490;9.688;2023-06-26T10:21:06;33.60;28.70
45044;DHT22;30784;48.490;9.688;2023-06-26T10:23:34;33.70;29.10
45044;DHT22;30784;48.490;9.688;2023-06-26T10:26:01;33.80;28.90
45044;DHT22;30784;48.490;9.688;2023-06-26T10:28:29;33.80;28.60
45044;DHT22;30784;48.490;9.688;2023-06-26T10:30:57;33.90;28.70
45044;DHT22;30784;48.490;9.688;2023-06-26T10:33:24;34.10;28.50
45044;DHT22;30784;48.490;9.688;2023-06-26T10:35:50;34.20;28.30
45044;DHT22;30784;48.490;9.688;2023-06-26T10:38:16;34.20;28.00
45044;DHT22;30784;48.490;9.688;2023-06-26T10:40:47;34.30;28.00
45044;DHT22;30784;48.490;9.688;2023-06-26T10:43:16;34.30;28.20
45044;DHT22;30784;48.490;9.688;2023-06-26T10:45:48;34.40;27.70
45044;DHT22;30784;48.490;9.688;2023-06-26T10:48:19;34.50;27.60
45044;DHT22;30784;48.490;9.688;2023-06-26T10:50:49;34.50;27.30
45044;DHT22;30784;48.490;9.688;2023-06-26T10:55:50;34.60;27.30
45044;DHT22;30784;48.490;9.688;2023-06-26T10:58:34;34.60;27.20
45044;DHT22;30784;48.490;9.688;2023-06-26T11:03:42;34.70;27.20
45044;DHT22;30784;48.490;9.688;2023-06-26T11:06:16;34.80;27.20
45044;DHT22;30784;48.490;9.688;2023-06-26T11:11:13;34.90;27.30
45044;DHT22;30784;48.490;9.688;2023-06-26T11:13:40;34.90;27.30
45044;DHT22;30784;48.490;9.688;2023-06-26T11:16:06;35.00;27.00
45044;DHT22;30784;48.490;9.688;2023-06-26T11:18:32;34.90;27.10
45044;DHT22;30784;48.490;9.688;2023-06-26T11:21:11;34.90;27.10
45044;DHT22;30784;48.490;9.688;2023-06-26T11:23:39;34.90;27.20
45044;DHT22;30784;48.490;9.688;2023-06-26T11:26:19;34.90;27.20
45044;DHT22;30784;48.490;9.688;2023-06-26T11:28:51;34.90;27.20
45044;DHT22;30784;48.490;9.688;2023-06-26T11:31:33;34.90;27.20
45044;DHT22;30784;48.490;9.688;2023-06-26T11:34:04;34.80;27.20
45044;DHT22;30784;48.490;9.688;2023-06-26T11:36:31;34.80;27.20
45044;DHT22;30784;48.490;9.688;2023-06-26T11:39:01;34.70;27.20
45044;DHT22;30784;48.490;9.688;2023-06-26T11:41:30;34.70;27.10
45044;DHT22;30784;48.490;9.688;2023-06-26T11:44:03;34.70;26.90
45044;DHT22;30784;48.490;9.688;2023-06-26T11:46:31;34.70;26.90
45044;DHT22;30784;48.490;9.688;2023-06-26T11:48:57;34.60;26.90
45044;DHT22;30784;48.490;9.688;2023-06-26T11:51:23;34.60;26.80
45044;DHT22;30784;48.490;9.688;2023-06-26T11:53:48;34.50;26.90
45044;DHT22;30784;48.490;9.688;2023-06-26T11:56:16;34.50;27.00
45044;DHT22;30784;48.490;9.688;2023-06-26T11:59:04;34.50;27.00
45044;DHT22;30784;48.490;9.688;2023-06-26T12:03:59;34.50;27.50
45044;DHT22;30784;48.490;9.688;2023-06-26T12:06:27;34.50;27.70
45044;DHT22;30784;48.490;9.688;2023-06-26T12:08:53;34.40;27.80
45044;DHT22;30784;48.490;9.688;2023-06-26T12:11:20;34.40;27.90
45044;DHT22;30784;48.490;9.688;2023-06-26T12:13:48;34.30;28.00
45044;DHT22;30784;48.490;9.688;2023-06-26T12:16:14;34.30;28.10
45044;DHT22;30784;48.490;9.688;2023-06-26T12:18:40;34.30;28.20
45044;DHT22;30784;48.490;9.688;2023-06-26T12:21:06;34.20;28.30
45044;DHT22;30784;48.490;9.688;2023-06-26T12:23:41;34.20;28.40
45044;DHT22;30784;48.490;9.688;2023-06-26T12:26:17;34.10;28.40
45044;DHT22;30784;48.490;9.688;2023-06-26T12:28:44;34.00;28.40
45044;DHT22;30784;48.490;9.688;2023-06-26T12:31:17;33.90;28.70
45044;DHT22;30784;48.490;9.688;2023-06-26T12:33:46;33.90;28.80
45044;DHT22;30784;48.490;9.688;2023-06-26T12:36:12;33.90;29.00
45044;DHT22;30784;48.490;9.688;2023-06-26T12:38:38;33.90;29.00
45044;DHT22;30784;48.490;9.688;2023-06-26T12:41:12;33.80;28.80
45044;DHT22;30784;48.490;9.688;2023-06-26T12:43:38;33.80;28.80
45044;DHT22;30784;48.490;9.688;2023-06-26T12:46:05;33.80;28.90
45044;DHT22;30784;48.490;9.688;2023-06-26T12:48:44;33.70;29.00
45044;DHT22;30784;48.490;9.688;2023-06-26T12:51:15;33.70;29.00
45044;DHT22;30784;48.490;9.688;2023-06-26T12:53:41;33.80;29.30
45044;DHT22;30784;48.490;9.688;2023-06-26T12:56:07;33.70;29.30
45044;DHT22;30784;48.490;9.688;2023-06-26T12:58:34;33.70;29.40
45044;DHT22;30784;48.490;9.688;2023-06-26T13:00:59;33.70;29.30
45044;DHT22;30784;48.490;9.688;2023-06-26T13:03:25;33.70;29.50
45044;DHT22;30784;48.490;9.688;2023-06-26T13:05:51;33.70;29.30
45044;DHT22;30784;48.490;9.688;2023-06-26T13:08:16;33.70;29.40
45044;DHT22;30784;48.490;9.688;2023-06-26T13:10:45;33.60;29.30
45044;DHT22;30784;48.490;9.688;2023-06-26T13:13:11;33.60;29.30
45044;DHT22;30784;48.490;9.688;2023-06-26T13:15:37;33.60;29.40
45044;DHT22;30784;48.490;9.688;2023-06-26T13:18:02;33.60;29.50
45044;DHT22;30784;48.490;9.688;2023-06-26T13:20:28;33.50;29.40
45044;DHT22;30784;48.490;9.688;2023-06-26T13:22:54;33.50;29.50
45044;DHT22;30784;48.490;9.688;2023-06-26T13:25:20;33.50;29.50
45044;DHT22;30784;48.490;9.688;2023-06-26T13:27:47;33.50;29.60
45044;DHT22;30784;48.490;9.688;2023-06-26T13:30:13;33.50;29.40
45044;DHT22;30784;48.490;9.688;2023-06-26T13:32:39;33.50;29.30
45044;DHT22;30784;48.490;9.688;2023-06-26T13:35:05;33.50;29.30
45044;DHT22;30784;48.490;9.688;2023-06-26T13:37:31;33.50;29.50
45044;DHT22;30784;48.490;9.688;2023-06-26T13:39:57;33.50;29.40
45044;DHT22;30784;48.490;9.688;2023-06-26T13:42:24;33.50;29.30
45044;DHT22;30784;48.490;9.688;2023-06-26T13:44:50;33.50;29.50
45044;DHT22;30784;48.490;9.688;2023-06-26T13:47:16;33.50;29.60
45044;DHT22;30784;48.490;9.688;2023-06-26T13:49:41;33.40;29.60
45044;DHT22;30784;48.490;9.688;2023-06-26T13:52:07;33.40;29.60
45044;DHT22;30784;48.490;9.688;2023-06-26T13:54:35;33.40;29.70
45044;DHT22;30784;48.490;9.688;2023-06-26T13:57:02;33.40;29.70
45044;DHT22;30784;48.490;9.688;2023-06-26T13:59:30;33.30;29.80
45044;DHT22;30784;48.490;9.688;2023-06-26T14:01:56;33.30;29.90
45044;DHT22;30784;48.490;9.688;2023-06-26T14:04:22;33.30;29.80
45044;DHT22;30784;48.490;9.688;2023-06-26T14:06:47;33.30;29.70
45044;DHT22;30784;48.490;9.688;2023-06-26T14:09:13;33.30;29.70
45044;DHT22;30784;48.490;9.688;2023-06-26T14:11:39;33.30;29.80
45044;DHT22;30784;48.490;9.688;2023-06-26T14:14:04;33.30;30.00
45044;DHT22;30784;48.490;9.688;2023-06-26T14:16:30;33.30;30.00
45044;DHT22;30784;48.490;9.688;2023-06-26T14:18:57;33.30;30.00
45044;DHT22;30784;48.490;9.688;2023-06-26T14:21:22;33.40;29.90
45044;DHT22;30784;48.490;9.688;2023-06-26T14:23:48;33.40;30.00
45044;DHT22;30784;48.490;9.688;2023-06-26T14:26:14;33.40;30.20
45044;DHT22;30784;48.490;9.688;2023-06-26T14:28:40;33.40;30.20
45044;DHT22;30784;48.490;9.688;2023-06-26T14:31:06;33.50;30.00
45044;DHT22;30784;48.490;9.688;2023-06-26T14:33:31;33.40;30.00
45044;DHT22;30784;48.490;9.688;2023-06-26T14:35:57;33.40;29.90
45044;DHT22;30784;48.490;9.688;2023-06-26T14:38:22;33.40;30.00
45044;DHT22;30784;48.490;9.688;2023-06-26T14:40:48;33.40;30.10
45044;DHT22;30784;48.490;9.688;2023-06-26T14:43:14;33.30;30.10
45044;DHT22;30784;48.490;9.688;2023-06-26T14:45:42;33.30;30.30
45044;DHT22;30784;48.490;9.688;2023-06-26T14:48:08;33.20;30.30
45044;DHT22;30784;48.490;9.688;2023-06-26T14:50:33;33.10;30.50
45044;DHT22;30784;48.490;9.688;2023-06-26T14:52:59;33.10;30.70
45044;DHT22;30784;48.490;9.688;2023-06-26T14:55:24;33.00;30.80
45044;DHT22;30784;48.490;9.688;2023-06-26T14:57:50;33.00;30.90
45044;DHT22;30784;48.490;9.688;2023-06-26T15:00:16;32.90;31.10
45044;DHT22;30784;48.490;9.688;2023-06-26T15:02:42;32.90;31.20
45044;DHT22;30784;48.490;9.688;2023-06-26T15:05:10;32.90;31.20
45044;DHT22;30784;48.490;9.688;2023-06-26T15:07:36;32.80;31.20
45044;DHT22;30784;48.490;9.688;2023-06-26T15:10:02;32.80;31.20
45044;DHT22;30784;48.490;9.688;2023-06-26T15:12:27;32.70;31.30
45044;DHT22;30784;48.490;9.688;2023-06-26T15:14:53;32.70;31.40
45044;DHT22;30784;48.490;9.688;2023-06-26T15:17:18;32.70;31.50
45044;DHT22;30784;48.490;9.688;2023-06-26T15:19:44;32.70;31.60
45044;DHT22;30784;48.490;9.688;2023-06-26T15:22:09;32.60;31.70
45044;DHT22;30784;48.490;9.688;2023-06-26T15:24:35;32.60;31.50
45044;DHT22;30784;48.490;9.688;2023-06-26T15:27:01;32.60;31.30
45044;DHT22;30784;48.490;9.688;2023-06-26T15:29:26;32.50;31.30
45044;DHT22;30784;48.490;9.688;2023-06-26T15:31:52;32.40;31.20
45044;DHT22;30784;48.490;9.688;2023-06-26T15:34:19;32.40;31.50
45044;DHT22;30784;48.490;9.688;2023-06-26T15:36:44;32.30;31.40
45044;DHT22;30784;48.490;9.688;2023-06-26T15:39:10;32.30;31.10
45044;DHT22;30784;48.490;9.688;2023-06-26T15:41:36;32.20;31.00
45044;DHT22;30784;48.490;9.688;2023-06-26T15:44:03;32.10;30.80
45044;DHT22;30784;48.490;9.688;2023-06-26T15:46:29;32.10;30.60
45044;DHT22;30784;48.490;9.688;2023-06-26T15:48:55;32.10;30.60
45044;DHT22;30784;48.490;9.688;2023-06-26T15:51:20;32.00;30.50
45044;DHT22;30784;48.490;9.688;2023-06-26T15:53:46;31.90;30.60